sensor_id;sensor_type;location;lat;lon;timestamp;P1;durP1;ratioP1;P2;durP2;ratioP2
50161;SDS011;36061;48.116;11.612;2022-12-04T00:00:37;18.97;;;8.37;;
50161;SDS011;36061;48.116;11.612;2022-12-04T00:03:03;18.53;;;7.57;;
50161;SDS011;36061;48.116;11.612;2022-12-04T00:05:29;13.87;;;7.90;;
50161;SDS011;36061;48.116;11.612;2022-12-04T00:07:55;17.13;;;7.70;;
50161;SDS011;36061;48.116;11.612;2022-12-04T00:10:21;15.97;;;8.37;;
50161;SDS011;36061;48.116;11.612;2022-12-04T00:12:46;13.87;;;7.13;;
50161;SDS011;36061;48.116;11.612;2022-12-04T00:15:12;18.40;;;6.87;;
50161;SDS011;36061;48.116;11.612;2022-12-04T00:17:38;16.40;;;7.77;;
50161;SDS011;36061;48.116;11.612;2022-12-04T00:20:04;16.70;;;8.00;;
50161;SDS011;36061;48.116;11.612;2022-12-04T00:22:30;17.53;;;8.60;;
50161;SDS011;36061;48.116;11.612;2022-12-04T00:24:56;15.77;;;8.00;;
50161;SDS011;36061;48.116;11.612;2022-12-04T00:27:22;18.43;;;8.33;;
50161;SDS011;36061;48.116;11.612;2022-12-04T00:29:47;19.73;;;8.87;;
50161;SDS011;36061;48.116;11.612;2022-12-04T00:32:13;15.27;;;7.43;;
50161;SDS011;36061;48.116;11.612;2022-12-04T00:34:39;15.20;;;7.77;;
50161;SDS011;36061;48.116;11.612;2022-12-04T00:37:05;15.53;;;8.00;;
50161;SDS011;36061;48.116;11.612;2022-12-04T00:39:30;15.50;;;7.60;;
50161;SDS011;36061;48.116;11.612;2022-12-04T00:41:56;14.23;;;7.07;;
50161;SDS011;36061;48.116;11.612;2022-12-04T00:44:22;16.53;;;7.60;;
50161;SDS011;36061;48.116;11.612;2022-12-04T00:46:47;17.83;;;8.87;;
50161;SDS011;36061;48.116;11.612;2022-12-04T00:49:13;15.90;;;8.10;;
50161;SDS011;36061;48.116;11.612;2022-12-04T00:51:39;14.57;;;7.63;;
50161;SDS011;36061;48.116;11.612;2022-12-04T00:54:05;18.07;;;7.70;;
50161;SDS011;36061;48.116;11.612;2022-12-04T00:56:30;16.43;;;7.37;;
50161;SDS011;36061;48.116;11.612;2022-12-04T00:58:57;14.43;;;7.43;;
50161;SDS011;36061;48.116;11.612;2022-12-04T01:01:25;16.73;;;7.83;;
50161;SDS011;36061;48.116;11.612;2022-12-04T01:03:52;15.93;;;7.87;;
50161;SDS011;36061;48.116;11.612;2022-12-04T01:06:20;18.60;;;7.00;;
50161;SDS011;36061;48.116;11.612;2022-12-04T01:08:47;15.93;;;7.07;;
50161;SDS011;36061;48.116;11.612;2022-12-04T01:11:14;19.63;;;8.37;;
50161;SDS011;36061;48.116;11.612;2022-12-04T01:13:40;18.53;;;8.57;;
50161;SDS011;36061;48.116;11.612;2022-12-04T01:16:06;15.50;;;7.83;;
50161;SDS011;36061;48.116;11.612;2022-12-04T01:18:32;16.40;;;8.10;;
50161;SDS011;36061;48.116;11.612;2022-12-04T01:20:57;15.37;;;7.27;;
50161;SDS011;36061;48.116;11.612;2022-12-04T01:23:23;15.73;;;7.47;;
50161;SDS011;36061;48.116;11.612;2022-12-04T01:25:50;14.47;;;7.90;;
50161;SDS011;36061;48.116;11.612;2022-12-04T01:28:18;12.53;;;7.40;;
50161;SDS011;36061;48.116;11.612;2022-12-04T01:30:44;14.63;;;7.20;;
50161;SDS011;36061;48.116;11.612;2022-12-04T01:33:09;14.43;;;7.40;;
50161;SDS011;36061;48.116;11.612;2022-12-04T01:35:35;12.97;;;6.60;;
50161;SDS011;36061;48.116;11.612;2022-12-04T01:38:01;14.93;;;7.43;;
50161;SDS011;36061;48.116;11.612;2022-12-04T01:40:27;14.20;;;7.33;;
50161;SDS011;36061;48.116;11.612;2022-12-04T01:42:52;14.30;;;7.03;;
50161;SDS011;36061;48.116;11.612;2022-12-04T01:48:08;13.47;;;7.23;;
50161;SDS011;36061;48.116;11.612;2022-12-04T01:50:35;12.90;;;5.97;;
50161;SDS011;36061;48.116;11.612;2022-12-04T01:53:01;18.07;;;8.27;;
50161;SDS011;36061;48.116;11.612;2022-12-04T01:55:26;14.90;;;6.67;;
50161;SDS011;36061;48.116;11.612;2022-12-04T01:57:54;15.97;;;7.33;;
50161;SDS011;36061;48.116;11.612;2022-12-04T02:00:21;14.03;;;7.83;;
50161;SDS011;36061;48.116;11.612;2022-12-04T02:02:47;12.30;;;6.20;;
50161;SDS011;36061;48.116;11.612;2022-12-04T02:05:14;16.30;;;8.00;;
50161;SDS011;36061;48.116;11.612;2022-12-04T02:07:42;11.50;;;6.33;;
50161;SDS011;36061;48.116;11.612;2022-12-04T02:10:11;15.67;;;7.90;;
50161;SDS011;36061;48.116;11.612;2022-12-04T02:12:42;13.70;;;7.17;;
50161;SDS011;36061;48.116;11.612;2022-12-04T02:15:16;13.87;;;7.00;;
50161;SDS011;36061;48.116;11.612;2022-12-04T02:17:53;15.30;;;6.30;;
50161;SDS011;36061;48.116;11.612;2022-12-04T02:20:32;14.50;;;6.87;;
50161;SDS011;36061;48.116;11.612;2022-12-04T02:31:21;13.27;;;7.03;;
50161;SDS011;36061;48.116;11.612;2022-12-04T02:34:17;11.73;;;6.70;;
50161;SDS011;36061;48.116;11.612;2022-12-04T02:36:49;14.93;;;6.77;;
50161;SDS011;36061;48.116;11.612;2022-12-04T02:45:22;19.13;;;6.77;;
50161;SDS011;36061;48.116;11.612;2022-12-04T02:47:32;12.70;;;6.53;;
50161;SDS011;36061;48.116;11.612;2022-12-04T02:50:02;12.33;;;6.87;;
50161;SDS011;36061;48.116;11.612;2022-12-04T02:52:37;17.87;;;6.90;;
50161;SDS011;36061;48.116;11.612;2022-12-04T02:55:14;13.10;;;7.20;;
50161;SDS011;36061;48.116;11.612;2022-12-04T02:57:44;14.53;;;7.33;;
50161;SDS011;36061;48.116;11.612;2022-12-04T03:00:17;14.57;;;6.83;;
50161;SDS011;36061;48.116;11.612;2022-12-04T03:02:51;10.30;;;6.00;;
50161;SDS011;36061;48.116;11.612;2022-12-04T03:05:23;11.23;;;6.53;;
50161;SDS011;36061;48.116;11.612;2022-12-04T03:07:58;12.63;;;6.17;;
50161;SDS011;36061;48.116;11.612;2022-12-04T03:10:33;15.77;;;6.07;;
50161;SDS011;36061;48.116;11.612;2022-12-04T03:13:10;12.03;;;6.73;;
50161;SDS011;36061;48.116;11.612;2022-12-04T03:15:47;13.17;;;6.10;;
50161;SDS011;36061;48.116;11.612;2022-12-04T03:18:32;10.13;;;5.83;;
50161;SDS011;36061;48.116;11.612;2022-12-04T03:21:11;12.80;;;7.37;;
50161;SDS011;36061;48.116;11.612;2022-12-04T03:23:46;14.20;;;6.53;;
50161;SDS011;36061;48.116;11.612;2022-12-04T03:29:32;10.20;;;5.73;;
50161;SDS011;36061;48.116;11.612;2022-12-04T03:34:47;16.90;;;7.73;;
50161;SDS011;36061;48.116;11.612;2022-12-04T03:37:18;12.77;;;7.47;;
50161;SDS011;36061;48.116;11.612;2022-12-04T03:39:52;16.27;;;7.60;;
50161;SDS011;36061;48.116;11.612;2022-12-04T03:42:24;13.70;;;6.73;;
50161;SDS011;36061;48.116;11.612;2022-12-04T03:45:08;12.20;;;6.93;;
50161;SDS011;36061;48.116;11.612;2022-12-04T03:48:05;13.40;;;7.00;;
50161;SDS011;36061;48.116;11.612;2022-12-04T03:53:38;13.83;;;7.60;;
50161;SDS011;36061;48.116;11.612;2022-12-04T03:58:41;13.30;;;6.50;;
50161;SDS011;36061;48.116;11.612;2022-12-04T04:01:11;12.50;;;6.50;;
50161;SDS011;36061;48.116;11.612;2022-12-04T04:03:40;13.43;;;7.70;;
50161;SDS011;36061;48.116;11.612;2022-12-04T04:06:17;11.03;;;6.77;;
50161;SDS011;36061;48.116;11.612;2022-12-04T04:08:51;10.93;;;6.07;;
50161;SDS011;36061;48.116;11.612;2022-12-04T04:13:56;10.70;;;6.80;;
50161;SDS011;36061;48.116;11.612;2022-12-04T04:16:46;11.37;;;6.07;;
50161;SDS011;36061;48.116;11.612;2022-12-04T04:19:55;10.47;;;5.77;;
50161;SDS011;36061;48.116;11.612;2022-12-04T04:22:44;10.13;;;6.07;;
50161;SDS011;36061;48.116;11.612;2022-12-04T04:25:32;10.93;;;6.00;;
50161;SDS011;36061;48.116;11.612;2022-12-04T04:28:02;12.97;;;6.40;;
50161;SDS011;36061;48.116;11.612;2022-12-04T04:30:28;11.63;;;5.93;;
50161;SDS011;36061;48.116;11.612;2022-12-04T04:32:57;10.83;;;6.63;;
50161;SDS011;36061;48.116;11.612;2022-12-04T04:35:45;13.03;;;6.43;;
50161;SDS011;36061;48.116;11.612;2022-12-04T04:38:24;10.93;;;6.20;;
50161;SDS011;36061;48.116;11.612;2022-12-04T04:40:58;12.93;;;7.03;;
50161;SDS011;36061;48.116;11.612;2022-12-04T04:46:17;12.00;;;6.93;;
50161;SDS011;36061;48.116;11.612;2022-12-04T04:48:48;11.07;;;6.23;;
50161;SDS011;36061;48.116;11.612;2022-12-04T04:51:17;13.83;;;6.97;;
50161;SDS011;36061;48.116;11.612;2022-12-04T04:53:45;11.27;;;6.20;;
50161;SDS011;36061;48.116;11.612;2022-12-04T04:56:15;11.47;;;6.07;;
50161;SDS011;36061;48.116;11.612;2022-12-04T04:58:41;16.87;;;7.27;;
50161;SDS011;36061;48.116;11.612;2022-12-04T05:01:08;11.60;;;6.63;;
50161;SDS011;36061;48.116;11.612;2022-12-04T05:03:37;12.20;;;6.73;;
50161;SDS011;36061;48.116;11.612;2022-12-04T05:06:04;15.40;;;7.83;;
50161;SDS011;36061;48.116;11.612;2022-12-04T05:08:30;12.30;;;7.13;;
50161;SDS011;36061;48.116;11.612;2022-12-04T05:10:56;12.97;;;6.53;;
50161;SDS011;36061;48.116;11.612;2022-12-04T05:13:22;12.13;;;6.67;;
50161;SDS011;36061;48.116;11.612;2022-12-04T05:15:58;13.00;;;7.57;;
50161;SDS011;36061;48.116;11.612;2022-12-04T05:18:25;15.40;;;7.77;;
50161;SDS011;36061;48.116;11.612;2022-12-04T05:20:52;12.13;;;5.93;;
50161;SDS011;36061;48.116;11.612;2022-12-04T05:23:18;16.60;;;6.87;;
50161;SDS011;36061;48.116;11.612;2022-12-04T05:25:43;13.20;;;6.50;;
50161;SDS011;36061;48.116;11.612;2022-12-04T05:28:09;11.13;;;6.50;;
50161;SDS011;36061;48.116;11.612;2022-12-04T05:30:35;12.13;;;6.87;;
50161;SDS011;36061;48.116;11.612;2022-12-04T05:33:01;12.33;;;6.20;;
50161;SDS011;36061;48.116;11.612;2022-12-04T05:35:27;11.53;;;6.43;;
50161;SDS011;36061;48.116;11.612;2022-12-04T05:37:53;10.60;;;6.00;;
50161;SDS011;36061;48.116;11.612;2022-12-04T05:40:18;13.13;;;7.03;;
50161;SDS011;36061;48.116;11.612;2022-12-04T05:42:44;12.90;;;7.17;;
50161;SDS011;36061;48.116;11.612;2022-12-04T05:45:10;14.50;;;6.87;;
50161;SDS011;36061;48.116;11.612;2022-12-04T05:47:37;13.43;;;7.13;;
50161;SDS011;36061;48.116;11.612;2022-12-04T05:50:04;13.47;;;7.43;;
50161;SDS011;36061;48.116;11.612;2022-12-04T05:52:31;14.27;;;7.63;;
50161;SDS011;36061;48.116;11.612;2022-12-04T05:54:57;15.73;;;6.63;;
50161;SDS011;36061;48.116;11.612;2022-12-04T05:57:22;13.77;;;6.83;;
50161;SDS011;36061;48.116;11.612;2022-12-04T05:59:49;14.03;;;7.27;;
50161;SDS011;36061;48.116;11.612;2022-12-04T06:02:15;15.07;;;6.83;;
50161;SDS011;36061;48.116;11.612;2022-12-04T06:04:41;13.03;;;6.73;;
50161;SDS011;36061;48.116;11.612;2022-12-04T06:07:08;13.83;;;6.63;;
50161;SDS011;36061;48.116;11.612;2022-12-04T06:09:34;15.47;;;7.40;;
50161;SDS011;36061;48.116;11.612;2022-12-04T06:12:00;15.93;;;7.40;;
50161;SDS011;36061;48.116;11.612;2022-12-04T06:14:26;11.63;;;6.67;;
50161;SDS011;36061;48.116;11.612;2022-12-04T06:16:51;15.27;;;7.23;;
50161;SDS011;36061;48.116;11.612;2022-12-04T06:19:18;12.40;;;6.77;;
50161;SDS011;36061;48.116;11.612;2022-12-04T06:21:46;13.17;;;7.17;;
50161;SDS011;36061;48.116;11.612;2022-12-04T06:24:15;12.63;;;6.93;;
50161;SDS011;36061;48.116;11.612;2022-12-04T06:26:43;14.23;;;7.47;;
50161;SDS011;36061;48.116;11.612;2022-12-04T06:29:09;19.03;;;8.40;;
50161;SDS011;36061;48.116;11.612;2022-12-04T06:31:36;19.20;;;7.20;;
50161;SDS011;36061;48.116;11.612;2022-12-04T06:34:02;15.00;;;7.90;;
50161;SDS011;36061;48.116;11.612;2022-12-04T06:36:29;13.50;;;7.30;;
50161;SDS011;36061;48.116;11.612;2022-12-04T06:38:55;16.33;;;7.80;;
50161;SDS011;36061;48.116;11.612;2022-12-04T06:41:22;13.93;;;7.20;;
50161;SDS011;36061;48.116;11.612;2022-12-04T06:43:48;14.83;;;7.30;;
50161;SDS011;36061;48.116;11.612;2022-12-04T06:46:26;19.73;;;7.67;;
50161;SDS011;36061;48.116;11.612;2022-12-04T06:48:54;13.83;;;7.10;;
50161;SDS011;36061;48.116;11.612;2022-12-04T06:51:22;12.70;;;7.20;;
50161;SDS011;36061;48.116;11.612;2022-12-04T06:53:53;15.93;;;7.67;;
50161;SDS011;36061;48.116;11.612;2022-12-04T06:56:20;13.00;;;7.30;;
50161;SDS011;36061;48.116;11.612;2022-12-04T06:58:50;12.93;;;7.23;;
50161;SDS011;36061;48.116;11.612;2022-12-04T07:01:23;12.47;;;6.73;;
50161;SDS011;36061;48.116;11.612;2022-12-04T07:03:50;12.40;;;7.03;;
50161;SDS011;36061;48.116;11.612;2022-12-04T07:06:17;13.00;;;6.30;;
50161;SDS011;36061;48.116;11.612;2022-12-04T07:08:49;12.87;;;7.20;;
50161;SDS011;36061;48.116;11.612;2022-12-04T07:11:16;12.80;;;7.00;;
50161;SDS011;36061;48.116;11.612;2022-12-04T07:13:43;11.23;;;6.97;;
50161;SDS011;36061;48.116;11.612;2022-12-04T07:16:10;14.13;;;6.67;;
50161;SDS011;36061;48.116;11.612;2022-12-04T07:18:38;11.40;;;6.57;;
50161;SDS011;36061;48.116;11.612;2022-12-04T07:21:05;11.97;;;6.67;;
50161;SDS011;36061;48.116;11.612;2022-12-04T07:23:32;9.03;;;5.07;;
50161;SDS011;36061;48.116;11.612;2022-12-04T07:26:02;12.43;;;6.83;;
50161;SDS011;36061;48.116;11.612;2022-12-04T07:28:32;12.80;;;7.23;;
50161;SDS011;36061;48.116;11.612;2022-12-04T07:31:02;12.23;;;7.23;;
50161;SDS011;36061;48.116;11.612;2022-12-04T07:33:32;16.53;;;6.83;;
50161;SDS011;36061;48.116;11.612;2022-12-04T07:35:58;13.57;;;7.70;;
50161;SDS011;36061;48.116;11.612;2022-12-04T07:38:25;15.07;;;7.63;;
50161;SDS011;36061;48.116;11.612;2022-12-04T07:40:54;13.87;;;7.50;;
50161;SDS011;36061;48.116;11.612;2022-12-04T07:43:24;12.53;;;7.53;;
50161;SDS011;36061;48.116;11.612;2022-12-04T07:45:51;12.97;;;7.33;;
50161;SDS011;36061;48.116;11.612;2022-12-04T07:48:17;14.60;;;7.23;;
50161;SDS011;36061;48.116;11.612;2022-12-04T07:50:43;12.97;;;7.43;;
50161;SDS011;36061;48.116;11.612;2022-12-04T07:53:09;14.70;;;8.47;;
50161;SDS011;36061;48.116;11.612;2022-12-04T07:55:35;16.57;;;7.57;;
50161;SDS011;36061;48.116;11.612;2022-12-04T07:58:01;16.83;;;6.57;;
50161;SDS011;36061;48.116;11.612;2022-12-04T08:00:26;13.50;;;7.03;;
50161;SDS011;36061;48.116;11.612;2022-12-04T08:02:52;13.87;;;7.03;;
50161;SDS011;36061;48.116;11.612;2022-12-04T08:05:18;14.10;;;7.43;;
50161;SDS011;36061;48.116;11.612;2022-12-04T08:07:44;16.80;;;7.33;;
50161;SDS011;36061;48.116;11.612;2022-12-04T08:10:10;11.90;;;7.13;;
50161;SDS011;36061;48.116;11.612;2022-12-04T08:12:36;14.50;;;6.33;;
50161;SDS011;36061;48.116;11.612;2022-12-04T08:15:02;15.17;;;6.93;;
50161;SDS011;36061;48.116;11.612;2022-12-04T08:17:28;12.13;;;6.77;;
50161;SDS011;36061;48.116;11.612;2022-12-04T08:19:54;24.27;;;8.07;;
50161;SDS011;36061;48.116;11.612;2022-12-04T08:22:19;18.73;;;7.87;;
50161;SDS011;36061;48.116;11.612;2022-12-04T08:24:45;18.03;;;7.10;;
50161;SDS011;36061;48.116;11.612;2022-12-04T08:27:11;13.00;;;7.30;;
50161;SDS011;36061;48.116;11.612;2022-12-04T08:29:36;13.67;;;7.20;;
50161;SDS011;36061;48.116;11.612;2022-12-04T08:32:02;14.60;;;7.23;;
50161;SDS011;36061;48.116;11.612;2022-12-04T08:34:28;14.57;;;6.97;;
50161;SDS011;36061;48.116;11.612;2022-12-04T08:36:54;16.13;;;8.00;;
50161;SDS011;36061;48.116;11.612;2022-12-04T08:39:20;16.23;;;7.77;;
50161;SDS011;36061;48.116;11.612;2022-12-04T08:41:46;13.00;;;7.40;;
50161;SDS011;36061;48.116;11.612;2022-12-04T08:44:11;14.40;;;7.43;;
50161;SDS011;36061;48.116;11.612;2022-12-04T08:46:37;16.60;;;5.47;;
50161;SDS011;36061;48.116;11.612;2022-12-04T08:49:03;8.13;;;5.37;;
50161;SDS011;36061;48.116;11.612;2022-12-04T08:51:30;13.47;;;7.70;;
50161;SDS011;36061;48.116;11.612;2022-12-04T08:53:59;16.40;;;7.80;;
50161;SDS011;36061;48.116;11.612;2022-12-04T08:56:28;10.73;;;6.50;;
50161;SDS011;36061;48.116;11.612;2022-12-04T08:58:55;13.60;;;6.40;;
50161;SDS011;36061;48.116;11.612;2022-12-04T09:01:21;10.20;;;5.83;;
50161;SDS011;36061;48.116;11.612;2022-12-04T09:03:47;10.10;;;6.30;;
50161;SDS011;36061;48.116;11.612;2022-12-04T09:06:14;13.27;;;7.23;;
50161;SDS011;36061;48.116;11.612;2022-12-04T09:08:40;9.17;;;5.67;;
50161;SDS011;36061;48.116;11.612;2022-12-04T09:11:14;16.53;;;6.60;;
50161;SDS011;36061;48.116;11.612;2022-12-04T09:13:42;11.70;;;6.33;;
50161;SDS011;36061;48.116;11.612;2022-12-04T09:16:13;9.27;;;6.00;;
50161;SDS011;36061;48.116;11.612;2022-12-04T09:18:41;10.37;;;6.20;;
50161;SDS011;36061;48.116;11.612;2022-12-04T09:21:09;11.00;;;6.43;;
50161;SDS011;36061;48.116;11.612;2022-12-04T09:23:36;15.77;;;6.13;;
50161;SDS011;36061;48.116;11.612;2022-12-04T09:26:03;10.17;;;6.73;;
50161;SDS011;36061;48.116;11.612;2022-12-04T09:28:30;11.70;;;6.53;;
50161;SDS011;36061;48.116;11.612;2022-12-04T09:30:57;10.60;;;6.43;;
50161;SDS011;36061;48.116;11.612;2022-12-04T09:33:28;10.87;;;6.47;;
50161;SDS011;36061;48.116;11.612;2022-12-04T09:35:55;11.90;;;6.40;;
50161;SDS011;36061;48.116;11.612;2022-12-04T09:38:23;12.10;;;6.30;;
50161;SDS011;36061;48.116;11.612;2022-12-04T09:40:54;10.23;;;6.43;;
50161;SDS011;36061;48.116;11.612;2022-12-04T09:43:50;11.27;;;6.53;;
50161;SDS011;36061;48.116;11.612;2022-12-04T09:49:02;11.00;;;5.77;;
50161;SDS011;36061;48.116;11.612;2022-12-04T09:51:34;10.70;;;6.10;;
50161;SDS011;36061;48.116;11.612;2022-12-04T09:54:16;8.40;;;5.60;;
50161;SDS011;36061;48.116;11.612;2022-12-04T09:56:59;9.83;;;6.00;;
50161;SDS011;36061;48.116;11.612;2022-12-04T09:59:30;10.50;;;6.10;;
50161;SDS011;36061;48.116;11.612;2022-12-04T10:04:26;9.83;;;6.07;;
50161;SDS011;36061;48.116;11.612;2022-12-04T10:06:59;11.33;;;6.40;;
50161;SDS011;36061;48.116;11.612;2022-12-04T10:15:09;9.57;;;5.63;;
50161;SDS011;36061;48.116;11.612;2022-12-04T10:17:43;9.63;;;6.40;;
50161;SDS011;36061;48.116;11.612;2022-12-04T10:20:39;10.43;;;6.70;;
50161;SDS011;36061;48.116;11.612;2022-12-04T10:25:59;11.50;;;7.50;;
50161;SDS011;36061;48.116;11.612;2022-12-04T10:31:03;12.07;;;6.20;;
50161;SDS011;36061;48.116;11.612;2022-12-04T10:33:36;13.03;;;6.63;;
50161;SDS011;36061;48.116;11.612;2022-12-04T10:36:12;12.70;;;6.93;;
50161;SDS011;36061;48.116;11.612;2022-12-04T10:41:23;13.33;;;7.30;;
50161;SDS011;36061;48.116;11.612;2022-12-04T10:43:54;12.63;;;7.93;;
50161;SDS011;36061;48.116;11.612;2022-12-04T10:46:21;13.40;;;6.93;;
50161;SDS011;36061;48.116;11.612;2022-12-04T10:48:59;14.23;;;8.77;;
50161;SDS011;36061;48.116;11.612;2022-12-04T10:51:30;11.63;;;7.17;;
50161;SDS011;36061;48.116;11.612;2022-12-04T10:54:10;12.70;;;7.33;;
50161;SDS011;36061;48.116;11.612;2022-12-04T10:57:08;13.33;;;7.77;;
50161;SDS011;36061;48.116;11.612;2022-12-04T10:59:52;10.53;;;6.97;;
50161;SDS011;36061;48.116;11.612;2022-12-04T11:02:21;15.63;;;9.17;;
50161;SDS011;36061;48.116;11.612;2022-12-04T11:04:51;15.10;;;7.93;;
50161;SDS011;36061;48.116;11.612;2022-12-04T11:07:24;15.13;;;7.03;;
50161;SDS011;36061;48.116;11.612;2022-12-04T11:09:53;14.80;;;7.40;;
50161;SDS011;36061;48.116;11.612;2022-12-04T11:12:23;13.87;;;8.20;;
50161;SDS011;36061;48.116;11.612;2022-12-04T11:17:44;12.13;;;7.30;;
50161;SDS011;36061;48.116;11.612;2022-12-04T11:20:24;15.20;;;8.10;;
50161;SDS011;36061;48.116;11.612;2022-12-04T11:22:52;16.60;;;9.13;;
50161;SDS011;36061;48.116;11.612;2022-12-04T11:25:23;13.70;;;8.10;;
50161;SDS011;36061;48.116;11.612;2022-12-04T11:27:55;15.00;;;8.20;;
50161;SDS011;36061;48.116;11.612;2022-12-04T11:30:32;14.37;;;7.67;;
50161;SDS011;36061;48.116;11.612;2022-12-04T11:33:00;16.00;;;8.17;;
50161;SDS011;36061;48.116;11.612;2022-12-04T11:35:28;12.60;;;7.37;;
50161;SDS011;36061;48.116;11.612;2022-12-04T11:40:24;13.00;;;7.63;;
50161;SDS011;36061;48.116;11.612;2022-12-04T11:45:55;13.87;;;8.03;;
50161;SDS011;36061;48.116;11.612;2022-12-04T11:48:23;13.70;;;7.53;;
50161;SDS011;36061;48.116;11.612;2022-12-04T11:51:11;13.50;;;7.37;;
50161;SDS011;36061;48.116;11.612;2022-12-04T12:04:56;16.33;;;8.30;;
50161;SDS011;36061;48.116;11.612;2022-12-04T12:16:26;17.27;;;9.17;;
50161;SDS011;36061;48.116;11.612;2022-12-04T12:30:08;13.87;;;7.20;;
50161;SDS011;36061;48.116;11.612;2022-12-04T12:38:18;12.57;;;7.23;;
50161;SDS011;36061;48.116;11.612;2022-12-04T12:41:04;13.50;;;7.40;;
50161;SDS011;36061;48.116;11.612;2022-12-04T12:43:37;17.70;;;7.97;;
50161;SDS011;36061;48.116;11.612;2022-12-04T12:57:42;14.93;;;8.50;;
50161;SDS011;36061;48.116;11.612;2022-12-04T13:00:23;12.27;;;6.60;;
50161;SDS011;36061;48.116;11.612;2022-12-04T13:02:54;13.30;;;7.90;;
50161;SDS011;36061;48.116;11.612;2022-12-04T13:05:40;18.73;;;9.20;;
50161;SDS011;36061;48.116;11.612;2022-12-04T13:13:38;16.60;;;9.47;;
50161;SDS011;36061;48.116;11.612;2022-12-04T13:16:35;14.37;;;8.07;;
50161;SDS011;36061;48.116;11.612;2022-12-04T13:21:50;15.17;;;8.00;;
50161;SDS011;36061;48.116;11.612;2022-12-04T13:24:36;16.20;;;8.43;;
50161;SDS011;36061;48.116;11.612;2022-12-04T13:27:31;13.80;;;8.40;;
50161;SDS011;36061;48.116;11.612;2022-12-04T13:30:25;13.57;;;7.33;;
50161;SDS011;36061;48.116;11.612;2022-12-04T13:40:46;15.50;;;7.97;;
50161;SDS011;36061;48.116;11.612;2022-12-04T13:45:51;12.17;;;7.20;;
50161;SDS011;36061;48.116;11.612;2022-12-04T13:48:39;16.07;;;7.93;;
50161;SDS011;36061;48.116;11.612;2022-12-04T13:51:20;12.87;;;6.83;;
50161;SDS011;36061;48.116;11.612;2022-12-04T13:53:47;15.30;;;8.90;;
50161;SDS011;36061;48.116;11.612;2022-12-04T13:56:27;13.77;;;8.20;;
50161;SDS011;36061;48.116;11.612;2022-12-04T13:59:01;14.37;;;7.60;;
50161;SDS011;36061;48.116;11.612;2022-12-04T14:01:43;12.80;;;7.47;;
50161;SDS011;36061;48.116;11.612;2022-12-04T14:04:28;14.83;;;8.40;;
50161;SDS011;36061;48.116;11.612;2022-12-04T14:07:18;14.83;;;7.17;;
50161;SDS011;36061;48.116;11.612;2022-12-04T14:09:58;12.03;;;7.87;;
50161;SDS011;36061;48.116;11.612;2022-12-04T14:12:30;12.67;;;7.43;;
50161;SDS011;36061;48.116;11.612;2022-12-04T14:17:35;11.97;;;7.67;;
50161;SDS011;36061;48.116;11.612;2022-12-04T14:20:04;13.03;;;7.80;;
50161;SDS011;36061;48.116;11.612;2022-12-04T14:25:04;14.10;;;8.77;;
50161;SDS011;36061;48.116;11.612;2022-12-04T14:30:05;14.77;;;8.50;;
50161;SDS011;36061;48.116;11.612;2022-12-04T14:33:04;14.50;;;8.50;;
50161;SDS011;36061;48.116;11.612;2022-12-04T14:38:31;15.30;;;8.80;;
50161;SDS011;36061;48.116;11.612;2022-12-04T14:40:57;18.83;;;9.77;;
50161;SDS011;36061;48.116;11.612;2022-12-04T14:43:38;20.60;;;9.50;;
50161;SDS011;36061;48.116;11.612;2022-12-04T14:46:17;18.00;;;10.10;;
50161;SDS011;36061;48.116;11.612;2022-12-04T14:48:59;20.17;;;9.63;;
50161;SDS011;36061;48.116;11.612;2022-12-04T14:51:34;17.97;;;10.43;;
50161;SDS011;36061;48.116;11.612;2022-12-04T14:59:28;17.20;;;10.03;;
50161;SDS011;36061;48.116;11.612;2022-12-04T15:02:13;16.07;;;8.17;;
50161;SDS011;36061;48.116;11.612;2022-12-04T15:04:41;17.73;;;12.03;;
50161;SDS011;36061;48.116;11.612;2022-12-04T15:07:15;16.27;;;9.07;;
50161;SDS011;36061;48.116;11.612;2022-12-04T15:09:50;18.10;;;9.93;;
50161;SDS011;36061;48.116;11.612;2022-12-04T15:12:49;17.50;;;9.33;;
50161;SDS011;36061;48.116;11.612;2022-12-04T15:15:18;17.10;;;10.10;;
50161;SDS011;36061;48.116;11.612;2022-12-04T15:17:55;18.80;;;10.13;;
50161;SDS011;36061;48.116;11.612;2022-12-04T15:20:21;23.57;;;12.13;;
50161;SDS011;36061;48.116;11.612;2022-12-04T15:22:47;23.17;;;12.00;;
50161;SDS011;36061;48.116;11.612;2022-12-04T15:25:14;21.10;;;11.87;;
50161;SDS011;36061;48.116;11.612;2022-12-04T15:27:47;20.97;;;11.43;;
50161;SDS011;36061;48.116;11.612;2022-12-04T15:30:16;25.00;;;12.30;;
50161;SDS011;36061;48.116;11.612;2022-12-04T15:32:44;25.47;;;13.30;;
50161;SDS011;36061;48.116;11.612;2022-12-04T15:35:15;33.70;;;14.70;;
50161;SDS011;36061;48.116;11.612;2022-12-04T15:37:52;23.30;;;12.20;;
50161;SDS011;36061;48.116;11.612;2022-12-04T15:40:20;32.53;;;14.07;;
50161;SDS011;36061;48.116;11.612;2022-12-04T15:42:48;25.87;;;12.93;;
50161;SDS011;36061;48.116;11.612;2022-12-04T15:50:23;28.50;;;15.37;;
50161;SDS011;36061;48.116;11.612;2022-12-04T15:55:23;23.17;;;10.87;;
50161;SDS011;36061;48.116;11.612;2022-12-04T15:57:58;25.97;;;12.90;;
50161;SDS011;36061;48.116;11.612;2022-12-04T16:00:44;25.57;;;12.03;;
50161;SDS011;36061;48.116;11.612;2022-12-04T16:05:48;23.57;;;12.20;;
50161;SDS011;36061;48.116;11.612;2022-12-04T16:08:24;21.67;;;11.10;;
50161;SDS011;36061;48.116;11.612;2022-12-04T16:11:05;27.83;;;12.87;;
50161;SDS011;36061;48.116;11.612;2022-12-04T16:13:49;23.13;;;11.90;;
50161;SDS011;36061;48.116;11.612;2022-12-04T16:16:38;20.30;;;10.60;;
50161;SDS011;36061;48.116;11.612;2022-12-04T16:19:10;21.00;;;9.57;;
50161;SDS011;36061;48.116;11.612;2022-12-04T16:21:41;23.10;;;10.47;;
50161;SDS011;36061;48.116;11.612;2022-12-04T16:24:08;21.20;;;11.27;;
50161;SDS011;36061;48.116;11.612;2022-12-04T16:26:36;22.90;;;11.57;;
50161;SDS011;36061;48.116;11.612;2022-12-04T16:29:02;21.63;;;9.50;;
50161;SDS011;36061;48.116;11.612;2022-12-04T16:31:27;19.70;;;9.73;;
50161;SDS011;36061;48.116;11.612;2022-12-04T16:33:53;18.93;;;10.17;;
50161;SDS011;36061;48.116;11.612;2022-12-04T16:36:19;22.13;;;10.07;;
50161;SDS011;36061;48.116;11.612;2022-12-04T16:38:45;37.07;;;15.93;;
50161;SDS011;36061;48.116;11.612;2022-12-04T16:41:14;20.33;;;9.60;;
50161;SDS011;36061;48.116;11.612;2022-12-04T16:43:41;19.23;;;8.87;;
50161;SDS011;36061;48.116;11.612;2022-12-04T16:46:10;18.67;;;10.03;;
50161;SDS011;36061;48.116;11.612;2022-12-04T16:48:42;16.40;;;8.93;;
50161;SDS011;36061;48.116;11.612;2022-12-04T16:51:15;22.10;;;10.33;;
50161;SDS011;36061;48.116;11.612;2022-12-04T16:53:43;15.13;;;8.60;;
50161;SDS011;36061;48.116;11.612;2022-12-04T16:56:08;19.00;;;10.47;;
50161;SDS011;36061;48.116;11.612;2022-12-04T16:58:35;14.97;;;8.07;;
50161;SDS011;36061;48.116;11.612;2022-12-04T17:01:00;13.43;;;7.10;;
50161;SDS011;36061;48.116;11.612;2022-12-04T17:03:29;12.20;;;7.53;;
50161;SDS011;36061;48.116;11.612;2022-12-04T17:05:57;11.37;;;7.33;;
50161;SDS011;36061;48.116;11.612;2022-12-04T17:08:24;13.10;;;6.30;;
50161;SDS011;36061;48.116;11.612;2022-12-04T17:10:50;12.80;;;6.77;;
50161;SDS011;36061;48.116;11.612;2022-12-04T17:13:17;12.03;;;6.47;;
50161;SDS011;36061;48.116;11.612;2022-12-04T17:15:44;10.37;;;6.73;;